79.6°F
Current conditions from King Hill
Updated every 5 minutes
 
  Wednesday August 20, 2014

Station Historical Data
Daily Summary for October 28, 2011 Units:  Both    English   Metric
« Previous Day
Next Day »
Daily Weekly Monthly Yearly Custom
  High: Low: Average:
Temperature: 45.0 °F /  7.2 °C 26.4 °F /  -3.1 °C 34.2 °F /  1.2 °C
Dew Point: 28.1 °F /  -2.2 °C 20.4 °F /  -6.4 °C 23.2 °F /  -4.9 °C
Humidity: 83% 41% 65%
Wind Speed: 9.0mph /  14.5km/h - 3.6mph /  5.8km/h
Wind Gust: 17.0mph /  27.4km/h - -
Wind- - NW
Pressure: 30.24 in /  1023.9 hPa 29.92 in /  1013.1 hPa -
Precipitation: 0.00 in /  0 mm    
Historical Graphs
 
 
Tabular Data for October 28, 2011
Time Temperature Dew Point Pressure Wind Wind Speed Wind Gust Humidity Daily Rainfall
00:00 34.4 °F /  1.3 °C 24.9 °F /  -3.9 °C 29.92in /  1013.1hPa NNW 1.0mph /  1.6km/h 9.0mph /  14.5km/h 68% 0.00in /  0mm
00:05 34.4 °F /  1.3 °C 24.9 °F /  -3.9 °C 29.92in /  1013.1hPa Calm   9.0mph /  14.5km/h 68% 0.00in /  0mm
00:10 34.4 °F /  1.3 °C 24.9 °F /  -3.9 °C 29.92in /  1013.1hPa NNW 1.0mph /  1.6km/h 6.0mph /  9.7km/h 68% 0.00in /  0mm
00:15 34.4 °F /  1.3 °C 24.2 °F /  -4.3 °C 29.93in /  1013.4hPa Calm   7.0mph /  11.3km/h 66% 0.00in /  0mm
00:20 34.2 °F /  1.2 °C 24.4 °F /  -4.2 °C 29.93in /  1013.4hPa Calm   7.0mph /  11.3km/h 67% 0.00in /  0mm
00:25 34.1 °F /  1.2 °C 23.6 °F /  -4.7 °C 29.93in /  1013.4hPa Calm   4.0mph /  6.4km/h 65% 0.00in /  0mm
00:30 33.9 °F /  1.1 °C 23.4 °F /  -4.8 °C 29.93in /  1013.4hPa NNW 1.0mph /  1.6km/h 4.0mph /  6.4km/h 65% 0.00in /  0mm
00:35 33.8 °F /  1 °C 22.9 °F /  -5.1 °C 29.93in /  1013.4hPa NNE 2.0mph /  3.2km/h 7.0mph /  11.3km/h 64% 0.00in /  0mm
00:40 33.6 °F /  0.9 °C 22.0 °F /  -5.6 °C 29.94in /  1013.8hPa NNW 1.0mph /  1.6km/h 7.0mph /  11.3km/h 62% 0.00in /  0mm
00:45 33.4 °F /  0.8 °C 22.5 °F /  -5.3 °C 29.94in /  1013.8hPa Calm   6.0mph /  9.7km/h 64% 0.00in /  0mm
00:50 33.2 °F /  0.7 °C 22.3 °F /  -5.4 °C 29.94in /  1013.8hPa North 1.0mph /  1.6km/h 6.0mph /  9.7km/h 64% 0.00in /  0mm
00:55 33.0 °F /  0.6 °C 22.5 °F /  -5.3 °C 29.94in /  1013.8hPa Calm   6.0mph /  9.7km/h 65% 0.00in /  0mm
01:00 32.8 °F /  0.4 °C 22.3 °F /  -5.4 °C 29.95in /  1014.1hPa NNW 1.0mph /  1.6km/h 4.0mph /  6.4km/h 65% 0.00in /  0mm
01:05 32.6 °F /  0.3 °C 22.5 °F /  -5.3 °C 29.95in /  1014.1hPa Calm   4.0mph /  6.4km/h 66% 0.00in /  0mm
01:10 32.5 °F /  0.3 °C 22.8 °F /  -5.1 °C 29.95in /  1014.1hPa Calm   3.0mph /  4.8km/h 67% 0.00in /  0mm
01:15 32.5 °F /  0.3 °C 22.0 °F /  -5.6 °C 29.95in /  1014.1hPa Calm   4.0mph /  6.4km/h 65% 0.00in /  0mm
01:20 32.6 °F /  0.3 °C 22.5 °F /  -5.3 °C 29.95in /  1014.1hPa Calm   4.0mph /  6.4km/h 66% 0.00in /  0mm
01:25 32.8 °F /  0.4 °C 22.7 °F /  -5.2 °C 29.95in /  1014.1hPa Calm   3.0mph /  4.8km/h 66% 0.00in /  0mm
01:30 32.9 °F /  0.5 °C 23.1 °F /  -4.9 °C 29.95in /  1014.1hPa NNW 1.0mph /  1.6km/h 6.0mph /  9.7km/h 67% 0.00in /  0mm
01:35 33.0 °F /  0.6 °C 22.5 °F /  -5.3 °C 29.95in /  1014.1hPa NNW 2.0mph /  3.2km/h 7.0mph /  11.3km/h 65% 0.00in /  0mm
01:40 33.2 °F /  0.7 °C 22.3 °F /  -5.4 °C 29.95in /  1014.1hPa NNW 4.0mph /  6.4km/h 10.0mph /  16.1km/h 64% 0.00in /  0mm
01:45 33.4 °F /  0.8 °C 22.9 °F /  -5.1 °C 29.96in /  1014.4hPa NW 1.0mph /  1.6km/h 10.0mph /  16.1km/h 65% 0.00in /  0mm
01:50 33.4 °F /  0.8 °C 22.5 °F /  -5.3 °C 29.96in /  1014.4hPa NNW 3.0mph /  4.8km/h 12.0mph /  19.3km/h 64% 0.00in /  0mm
01:55 33.5 °F /  0.8 °C 22.6 °F /  -5.2 °C 29.96in /  1014.4hPa NW 3.0mph /  4.8km/h 12.0mph /  19.3km/h 64% 0.00in /  0mm
02:00 33.6 °F /  0.9 °C 23.1 °F /  -4.9 °C 29.96in /  1014.4hPa NW 4.0mph /  6.4km/h 10.0mph /  16.1km/h 65% 0.00in /  0mm
02:05 33.5 °F /  0.8 °C 23.0 °F /  -5 °C 29.96in /  1014.4hPa NNW 1.0mph /  1.6km/h 10.0mph /  16.1km/h 65% 0.00in /  0mm
02:10 33.4 °F /  0.8 °C 22.9 °F /  -5.1 °C 29.96in /  1014.4hPa NW 4.0mph /  6.4km/h 10.0mph /  16.1km/h 65% 0.00in /  0mm
02:15 33.3 °F /  0.7 °C 22.8 °F /  -5.1 °C 29.97in /  1014.8hPa NW 5.0mph /  8km/h 10.0mph /  16.1km/h 65% 0.00in /  0mm
02:20 33.1 °F /  0.6 °C 23.0 °F /  -5 °C 29.97in /  1014.8hPa WNW 4.0mph /  6.4km/h 9.0mph /  14.5km/h 66% 0.00in /  0mm
02:25 33.0 °F /  0.6 °C 22.9 °F /  -5.1 °C 29.98in /  1015.1hPa WNW 5.0mph /  8km/h 10.0mph /  16.1km/h 66% 0.00in /  0mm
02:30 33.0 °F /  0.6 °C 23.2 °F /  -4.9 °C 29.98in /  1015.1hPa NW 4.0mph /  6.4km/h 14.0mph /  22.5km/h 67% 0.00in /  0mm
02:35 32.9 °F /  0.5 °C 23.1 °F /  -4.9 °C 29.98in /  1015.1hPa NW 2.0mph /  3.2km/h 14.0mph /  22.5km/h 67% 0.00in /  0mm
02:40 32.7 °F /  0.4 °C 23.0 °F /  -5 °C 29.98in /  1015.1hPa WNW 7.0mph /  11.3km/h 11.0mph /  17.7km/h 67% 0.00in /  0mm
02:45 32.5 °F /  0.3 °C 22.8 °F /  -5.1 °C 29.98in /  1015.1hPa NW 2.0mph /  3.2km/h 11.0mph /  17.7km/h 67% 0.00in /  0mm
02:50 32.2 °F /  0.1 °C 22.5 °F /  -5.3 °C 29.98in /  1015.1hPa NW 3.0mph /  4.8km/h 9.0mph /  14.5km/h 67% 0.00in /  0mm
02:55 32.0 °F /  0 °C 22.6 °F /  -5.2 °C 29.98in /  1015.1hPa NW 1.0mph /  1.6km/h 7.0mph /  11.3km/h 68% 0.00in /  0mm
03:00 31.7 °F /  -0.2 °C 22.4 °F /  -5.3 °C 29.98in /  1015.1hPa NW 2.0mph /  3.2km/h 7.0mph /  11.3km/h 68% 0.00in /  0mm
03:05 31.5 °F /  -0.3 °C 22.5 °F /  -5.3 °C 29.98in /  1015.1hPa NNW 1.0mph /  1.6km/h 7.0mph /  11.3km/h 69% 0.00in /  0mm
03:15 30.8 °F /  -0.7 °C 22.2 °F /  -5.4 °C 29.98in /  1015.1hPa Calm   3.0mph /  4.8km/h 70% 0.00in /  0mm
03:20 30.5 °F /  -0.8 °C 22.2 °F /  -5.4 °C 29.99in /  1015.5hPa Calm   3.0mph /  4.8km/h 71% 0.00in /  0mm
03:25 30.3 °F /  -0.9 °C 22.0 °F /  -5.6 °C 29.99in /  1015.5hPa Calm   3.0mph /  4.8km/h 71% 0.00in /  0mm
03:30 30.1 °F /  -1.1 °C 22.2 °F /  -5.4 °C 29.99in /  1015.5hPa Calm   3.0mph /  4.8km/h 72% 0.00in /  0mm
03:35 29.9 °F /  -1.2 °C 22.3 °F /  -5.4 °C 29.99in /  1015.5hPa Calm   2.0mph /  3.2km/h 73% 0.00in /  0mm
03:40 29.7 °F /  -1.3 °C 22.1 °F /  -5.5 °C 29.99in /  1015.5hPa NNW 1.0mph /  1.6km/h 4.0mph /  6.4km/h 73% 0.00in /  0mm
03:45 29.5 °F /  -1.4 °C 21.9 °F /  -5.6 °C 29.99in /  1015.5hPa Calm   4.0mph /  6.4km/h 73% 0.00in /  0mm
03:50 29.4 °F /  -1.4 °C 21.8 °F /  -5.7 °C 29.99in /  1015.5hPa Calm   1.0mph /  1.6km/h 73% 0.00in /  0mm
03:55 29.2 °F /  -1.6 °C 21.6 °F /  -5.8 °C 30.00in /  1015.8hPa Calm   3.0mph /  4.8km/h 73% 0.00in /  0mm
04:00 29.2 °F /  -1.6 °C 21.6 °F /  -5.8 °C 30.00in /  1015.8hPa NW 1.0mph /  1.6km/h 5.0mph /  8km/h 73% 0.00in /  0mm
04:05 29.3 °F /  -1.5 °C 21.7 °F /  -5.7 °C 30.00in /  1015.8hPa Calm   5.0mph /  8km/h 73% 0.00in /  0mm
04:10 29.5 °F /  -1.4 °C 21.9 °F /  -5.6 °C 30.00in /  1015.8hPa Calm   6.0mph /  9.7km/h 73% 0.00in /  0mm
04:15 29.5 °F /  -1.4 °C 21.9 °F /  -5.6 °C 30.00in /  1015.8hPa Calm   6.0mph /  9.7km/h 73% 0.00in /  0mm
04:20 29.5 °F /  -1.4 °C 21.9 °F /  -5.6 °C 30.00in /  1015.8hPa NW 1.0mph /  1.6km/h 5.0mph /  8km/h 73% 0.00in /  0mm
04:25 29.5 °F /  -1.4 °C 21.9 °F /  -5.6 °C 30.00in /  1015.8hPa Calm   5.0mph /  8km/h 73% 0.00in /  0mm
04:30 29.5 °F /  -1.4 °C 21.9 °F /  -5.6 °C 30.01in /  1016.1hPa Calm   1.0mph /  1.6km/h 73% 0.00in /  0mm
04:35 29.3 °F /  -1.5 °C 21.7 °F /  -5.7 °C 30.01in /  1016.1hPa WNW 2.0mph /  3.2km/h 6.0mph /  9.7km/h 73% 0.00in /  0mm
04:40 29.3 °F /  -1.5 °C 21.7 °F /  -5.7 °C 30.01in /  1016.1hPa Calm   6.0mph /  9.7km/h 73% 0.00in /  0mm
04:45 29.1 °F /  -1.6 °C 21.5 °F /  -5.8 °C 30.01in /  1016.1hPa Calm   1.0mph /  1.6km/h 73% 0.00in /  0mm
04:50 28.8 °F /  -1.8 °C 21.6 °F /  -5.8 °C 30.01in /  1016.1hPa Calm     74% 0.00in /  0mm
04:55 28.5 °F /  -1.9 °C 21.6 °F /  -5.8 °C 30.02in /  1016.5hPa Calm     75% 0.00in /  0mm
05:00 28.2 °F /  -2.1 °C 21.3 °F /  -5.9 °C 30.02in /  1016.5hPa Calm     75% 0.00in /  0mm
05:05 27.9 °F /  -2.3 °C 21.3 °F /  -5.9 °C 30.02in /  1016.5hPa Calm     76% 0.00in /  0mm
05:10 27.9 °F /  -2.3 °C 21.3 °F /  -5.9 °C 30.02in /  1016.5hPa Calm   2.0mph /  3.2km/h 76% 0.00in /  0mm
05:15 28.0 °F /  -2.2 °C 21.4 °F /  -5.9 °C 30.02in /  1016.5hPa Calm   3.0mph /  4.8km/h 76% 0.00in /  0mm
05:20 27.9 °F /  -2.3 °C 21.3 °F /  -5.9 °C 30.03in /  1016.8hPa Calm   3.0mph /  4.8km/h 76% 0.00in /  0mm
05:25 27.9 °F /  -2.3 °C 21.3 °F /  -5.9 °C 30.03in /  1016.8hPa Calm   2.0mph /  3.2km/h 76% 0.00in /  0mm
05:30 28.0 °F /  -2.2 °C 21.4 °F /  -5.9 °C 30.03in /  1016.8hPa Calm   2.0mph /  3.2km/h 76% 0.00in /  0mm
05:40 28.2 °F /  -2.1 °C 21.6 °F /  -5.8 °C 30.03in /  1016.8hPa Calm   2.0mph /  3.2km/h 76% 0.00in /  0mm
05:45 28.1 °F /  -2.2 °C 21.5 °F /  -5.8 °C 30.03in /  1016.8hPa Calm   2.0mph /  3.2km/h 76% 0.00in /  0mm
05:50 27.9 °F /  -2.3 °C 21.3 °F /  -5.9 °C 30.04in /  1017.2hPa Calm   2.0mph /  3.2km/h 76% 0.00in /  0mm
05:55 27.8 °F /  -2.3 °C 21.5 °F /  -5.8 °C 30.04in /  1017.2hPa Calm     77% 0.00in /  0mm
06:00 27.8 °F /  -2.3 °C 21.5 °F /  -5.8 °C 30.04in /  1017.2hPa Calm     77% 0.00in /  0mm
06:05 27.7 °F /  -2.4 °C 21.4 °F /  -5.9 °C 30.04in /  1017.2hPa Calm     77% 0.00in /  0mm
06:10 27.7 °F /  -2.4 °C 21.7 °F /  -5.7 °C 30.05in /  1017.5hPa Calm   1.0mph /  1.6km/h 78% 0.00in /  0mm
06:15 27.8 °F /  -2.3 °C 21.5 °F /  -5.8 °C 30.05in /  1017.5hPa Calm   1.0mph /  1.6km/h 77% 0.00in /  0mm
06:20 27.7 °F /  -2.4 °C 21.7 °F /  -5.7 °C 30.05in /  1017.5hPa Calm   1.0mph /  1.6km/h 78% 0.00in /  0mm
06:25 27.7 °F /  -2.4 °C 21.7 °F /  -5.7 °C 30.05in /  1017.5hPa Calm   2.0mph /  3.2km/h 78% 0.00in /  0mm
06:30 27.7 °F /  -2.4 °C 21.7 °F /  -5.7 °C 30.05in /  1017.5hPa Calm   2.0mph /  3.2km/h 78% 0.00in /  0mm
06:35 27.8 °F /  -2.3 °C 22.1 °F /  -5.5 °C 30.05in /  1017.5hPa Calm   2.0mph /  3.2km/h 79% 0.00in /  0mm
06:40 27.9 °F /  -2.3 °C 22.2 °F /  -5.4 °C 30.05in /  1017.5hPa Calm   1.0mph /  1.6km/h 79% 0.00in /  0mm
06:45 27.8 °F /  -2.3 °C 22.1 °F /  -5.5 °C 30.06in /  1017.8hPa Calm     79% 0.00in /  0mm
06:50 27.6 °F /  -2.4 °C 21.9 °F /  -5.6 °C 30.06in /  1017.8hPa Calm   1.0mph /  1.6km/h 79% 0.00in /  0mm
06:55 27.6 °F /  -2.4 °C 21.9 °F /  -5.6 °C 30.06in /  1017.8hPa Calm   1.0mph /  1.6km/h 79% 0.00in /  0mm
07:00 27.4 °F /  -2.6 °C 21.7 °F /  -5.7 °C 30.06in /  1017.8hPa Calm   2.0mph /  3.2km/h 79% 0.00in /  0mm
07:05 27.1 °F /  -2.7 °C 21.8 °F /  -5.7 °C 30.07in /  1018.2hPa Calm   2.0mph /  3.2km/h 80% 0.00in /  0mm
07:10 26.8 °F /  -2.9 °C 21.5 °F /  -5.8 °C 30.07in /  1018.2hPa Calm   1.0mph /  1.6km/h 80% 0.00in /  0mm
07:15 26.7 °F /  -2.9 °C 21.7 °F /  -5.7 °C 30.07in /  1018.2hPa Calm   1.0mph /  1.6km/h 81% 0.00in /  0mm
07:20 26.7 °F /  -2.9 °C 21.7 °F /  -5.7 °C 30.07in /  1018.2hPa Calm   1.0mph /  1.6km/h 81% 0.00in /  0mm
07:30 26.6 °F /  -3 °C 21.6 °F /  -5.8 °C 30.08in /  1018.5hPa Calm     81% 0.00in /  0mm
07:35 26.5 °F /  -3.1 °C 21.8 °F /  -5.7 °C 30.08in /  1018.5hPa Calm     82% 0.00in /  0mm
07:40 26.4 °F /  -3.1 °C 21.7 °F /  -5.7 °C 30.08in /  1018.5hPa Calm   2.0mph /  3.2km/h 82% 0.00in /  0mm
07:50 26.5 °F /  -3.1 °C 22.0 °F /  -5.6 °C 30.09in /  1018.8hPa Calm   1.0mph /  1.6km/h 83% 0.00in /  0mm
07:55 26.9 °F /  -2.8 °C 22.4 °F /  -5.3 °C 30.09in /  1018.8hPa Calm   4.0mph /  6.4km/h 83% 0.00in /  0mm
08:00 27.2 °F /  -2.7 °C 22.7 °F /  -5.2 °C 30.09in /  1018.8hPa Calm   4.0mph /  6.4km/h 83% 0.00in /  0mm
08:05 27.4 °F /  -2.6 °C 22.9 °F /  -5.1 °C 30.09in /  1018.8hPa Calm     83% 0.00in /  0mm
08:10 27.5 °F /  -2.5 °C 23.0 °F /  -5 °C 30.10in /  1019.2hPa Calm   2.0mph /  3.2km/h 83% 0.00in /  0mm
08:15 27.7 °F /  -2.4 °C 22.9 °F /  -5.1 °C 30.10in /  1019.2hPa Calm   2.0mph /  3.2km/h 82% 0.00in /  0mm
08:20 27.9 °F /  -2.3 °C 23.1 °F /  -4.9 °C 30.10in /  1019.2hPa Calm   1.0mph /  1.6km/h 82% 0.00in /  0mm
08:25 28.1 °F /  -2.2 °C 23.3 °F /  -4.8 °C 30.10in /  1019.2hPa Calm   1.0mph /  1.6km/h 82% 0.00in /  0mm
08:30 28.3 °F /  -2.1 °C 23.5 °F /  -4.7 °C 30.11in /  1019.5hPa Calm     82% 0.00in /  0mm
08:40 29.0 °F /  -1.7 °C 24.2 °F /  -4.3 °C 30.11in /  1019.5hPa Calm     82% 0.00in /  0mm
08:45 29.3 °F /  -1.5 °C 24.2 °F /  -4.3 °C 30.11in /  1019.5hPa Calm     81% 0.00in /  0mm
08:50 29.9 °F /  -1.2 °C 24.8 °F /  -4 °C 30.11in /  1019.5hPa WNW 2.0mph /  3.2km/h 5.0mph /  8km/h 81% 0.00in /  0mm
08:55 30.6 °F /  -0.8 °C 24.9 °F /  -3.9 °C 30.11in /  1019.5hPa Calm   5.0mph /  8km/h 79% 0.00in /  0mm
09:00 30.9 °F /  -0.6 °C 24.9 °F /  -3.9 °C 30.11in /  1019.5hPa Calm   4.0mph /  6.4km/h 78% 0.00in /  0mm
09:05 31.3 °F /  -0.4 °C 25.2 °F /  -3.8 °C 30.11in /  1019.5hPa West 2.0mph /  3.2km/h 5.0mph /  8km/h 78% 0.00in /  0mm
09:10 31.6 °F /  -0.2 °C 25.2 °F /  -3.8 °C 30.11in /  1019.5hPa Calm   5.0mph /  8km/h 77% 0.00in /  0mm
09:15 32.1 °F /  0.1 °C 25.4 °F /  -3.7 °C 30.12in /  1019.9hPa Calm   4.0mph /  6.4km/h 76% 0.00in /  0mm
09:20 32.7 °F /  0.4 °C 26.0 °F /  -3.3 °C 30.12in /  1019.9hPa WNW 1.0mph /  1.6km/h 5.0mph /  8km/h 76% 0.00in /  0mm
09:25 33.3 °F /  0.7 °C 25.9 °F /  -3.4 °C 30.12in /  1019.9hPa WNW 3.0mph /  4.8km/h 6.0mph /  9.7km/h 74% 0.00in /  0mm
09:30 34.2 °F /  1.2 °C 26.5 °F /  -3.1 °C 30.12in /  1019.9hPa NW 1.0mph /  1.6km/h 6.0mph /  9.7km/h 73% 0.00in /  0mm
09:35 35.0 °F /  1.7 °C 26.6 °F /  -3 °C 30.12in /  1019.9hPa NW 3.0mph /  4.8km/h 5.0mph /  8km/h 71% 0.00in /  0mm
09:40 35.4 °F /  1.9 °C 26.9 °F /  -2.8 °C 30.12in /  1019.9hPa NW 1.0mph /  1.6km/h 8.0mph /  12.9km/h 71% 0.00in /  0mm
09:45 36.1 °F /  2.3 °C 27.3 °F /  -2.6 °C 30.12in /  1019.9hPa WNW 1.0mph /  1.6km/h 8.0mph /  12.9km/h 70% 0.00in /  0mm
09:50 36.3 °F /  2.4 °C 26.4 °F /  -3.1 °C 30.12in /  1019.9hPa NW 2.0mph /  3.2km/h 7.0mph /  11.3km/h 67% 0.00in /  0mm
09:55 36.6 °F /  2.6 °C 27.0 °F /  -2.8 °C 30.12in /  1019.9hPa NW 2.0mph /  3.2km/h 7.0mph /  11.3km/h 68% 0.00in /  0mm
10:00 36.8 °F /  2.7 °C 27.2 °F /  -2.7 °C 30.12in /  1019.9hPa NNW 2.0mph /  3.2km/h 10.0mph /  16.1km/h 68% 0.00in /  0mm
10:05 37.0 °F /  2.8 °C 26.3 °F /  -3.2 °C 30.13in /  1020.2hPa West 3.0mph /  4.8km/h 10.0mph /  16.1km/h 65% 0.00in /  0mm
10:10 37.1 °F /  2.8 °C 26.4 °F /  -3.1 °C 30.13in /  1020.2hPa WNW 5.0mph /  8km/h 10.0mph /  16.1km/h 65% 0.00in /  0mm
10:15 37.3 °F /  2.9 °C 26.2 °F /  -3.2 °C 30.13in /  1020.2hPa WNW 4.0mph /  6.4km/h 10.0mph /  16.1km/h 64% 0.00in /  0mm
10:20 37.2 °F /  2.9 °C 26.5 °F /  -3.1 °C 30.13in /  1020.2hPa NNW 1.0mph /  1.6km/h 8.0mph /  12.9km/h 65% 0.00in /  0mm
10:25 37.3 °F /  2.9 °C 26.2 °F /  -3.2 °C 30.14in /  1020.5hPa WNW 2.0mph /  3.2km/h 8.0mph /  12.9km/h 64% 0.00in /  0mm
10:30 37.7 °F /  3.2 °C 26.2 °F /  -3.2 °C 30.14in /  1020.5hPa West 3.0mph /  4.8km/h 7.0mph /  11.3km/h 63% 0.00in /  0mm
10:35 37.3 °F /  2.9 °C 26.2 °F /  -3.2 °C 30.14in /  1020.5hPa Calm   7.0mph /  11.3km/h 64% 0.00in /  0mm
10:40 37.0 °F /  2.8 °C 25.6 °F /  -3.6 °C 30.14in /  1020.5hPa WNW 1.0mph /  1.6km/h 6.0mph /  9.7km/h 63% 0.00in /  0mm
10:50 37.4 °F /  3 °C 25.6 °F /  -3.6 °C 30.14in /  1020.5hPa West 5.0mph /  8km/h 7.0mph /  11.3km/h 62% 0.00in /  0mm
10:55 37.4 °F /  3 °C 25.2 °F /  -3.8 °C 30.14in /  1020.5hPa WNW 5.0mph /  8km/h 12.0mph /  19.3km/h 61% 0.00in /  0mm
11:00 37.2 °F /  2.9 °C 25.4 °F /  -3.7 °C 30.14in /  1020.5hPa NNW 2.0mph /  3.2km/h 12.0mph /  19.3km/h 62% 0.00in /  0mm
11:05 37.2 °F /  2.9 °C 25.8 °F /  -3.4 °C 30.14in /  1020.5hPa NNW 2.0mph /  3.2km/h 9.0mph /  14.5km/h 63% 0.00in /  0mm
11:10 37.2 °F /  2.9 °C 25.4 °F /  -3.7 °C 30.14in /  1020.5hPa West 6.0mph /  9.7km/h 11.0mph /  17.7km/h 62% 0.00in /  0mm
11:15 37.2 °F /  2.9 °C 25.8 °F /  -3.4 °C 30.14in /  1020.5hPa WNW 2.0mph /  3.2km/h 11.0mph /  17.7km/h 63% 0.00in /  0mm
11:20 37.4 °F /  3 °C 26.0 °F /  -3.3 °C 30.14in /  1020.5hPa West 4.0mph /  6.4km/h 10.0mph /  16.1km/h 63% 0.00in /  0mm
11:25 37.7 °F /  3.2 °C 26.2 °F /  -3.2 °C 30.14in /  1020.5hPa WNW 2.0mph /  3.2km/h 9.0mph /  14.5km/h 63% 0.00in /  0mm
11:35 37.9 °F /  3.3 °C 26.4 °F /  -3.1 °C 30.14in /  1020.5hPa NW 4.0mph /  6.4km/h 9.0mph /  14.5km/h 63% 0.00in /  0mm
11:40 38.2 °F /  3.4 °C 26.3 °F /  -3.2 °C 30.14in /  1020.5hPa WNW 1.0mph /  1.6km/h 9.0mph /  14.5km/h 62% 0.00in /  0mm
11:45 38.4 °F /  3.6 °C 26.5 °F /  -3.1 °C 30.14in /  1020.5hPa WNW 4.0mph /  6.4km/h 9.0mph /  14.5km/h 62% 0.00in /  0mm
11:50 38.3 °F /  3.5 °C 26.4 °F /  -3.1 °C 30.14in /  1020.5hPa Calm   6.0mph /  9.7km/h 62% 0.00in /  0mm
11:55 38.3 °F /  3.5 °C 26.4 °F /  -3.1 °C 30.14in /  1020.5hPa WNW 5.0mph /  8km/h 10.0mph /  16.1km/h 62% 0.00in /  0mm
12:00 38.3 °F /  3.5 °C 26.4 °F /  -3.1 °C 30.14in /  1020.5hPa WNW 5.0mph /  8km/h 10.0mph /  16.1km/h 62% 0.00in /  0mm
12:05 38.3 °F /  3.5 °C 26.8 °F /  -2.9 °C 30.14in /  1020.5hPa NW 4.0mph /  6.4km/h 9.0mph /  14.5km/h 63% 0.00in /  0mm
12:10 38.8 °F /  3.8 °C 27.7 °F /  -2.4 °C 30.14in /  1020.5hPa WNW 3.0mph /  4.8km/h 11.0mph /  17.7km/h 64% 0.00in /  0mm
12:15 40.2 °F /  4.6 °C 27.0 °F /  -2.8 °C 30.13in /  1020.2hPa NW 6.0mph /  9.7km/h 13.0mph /  20.9km/h 59% 0.00in /  0mm
12:20 41.8 °F /  5.4 °C 28.1 °F /  -2.2 °C 30.13in /  1020.2hPa WNW 6.0mph /  9.7km/h 14.0mph /  22.5km/h 58% 0.00in /  0mm
12:25 42.0 °F /  5.6 °C 26.1 °F /  -3.3 °C 30.13in /  1020.2hPa WNW 7.0mph /  11.3km/h 17.0mph /  27.4km/h 53% 0.00in /  0mm
12:30 41.4 °F /  5.2 °C 26.0 °F /  -3.3 °C 30.13in /  1020.2hPa WNW 6.0mph /  9.7km/h 17.0mph /  27.4km/h 54% 0.00in /  0mm
12:35 41.1 °F /  5.1 °C 26.2 °F /  -3.2 °C 30.13in /  1020.2hPa West 6.0mph /  9.7km/h 14.0mph /  22.5km/h 55% 0.00in /  0mm
12:40 40.6 °F /  4.8 °C 25.7 °F /  -3.5 °C 30.13in /  1020.2hPa West 5.0mph /  8km/h 14.0mph /  22.5km/h 55% 0.00in /  0mm
12:45 41.6 °F /  5.3 °C 27.1 °F /  -2.7 °C 30.13in /  1020.2hPa NW 3.0mph /  4.8km/h 13.0mph /  20.9km/h 56% 0.00in /  0mm
12:50 41.2 °F /  5.1 °C 24.9 °F /  -3.9 °C 30.13in /  1020.2hPa West 8.0mph /  12.9km/h 16.0mph /  25.7km/h 52% 0.00in /  0mm
12:55 41.8 °F /  5.4 °C 25.9 °F /  -3.4 °C 30.13in /  1020.2hPa WNW 8.0mph /  12.9km/h 16.0mph /  25.7km/h 53% 0.00in /  0mm
13:00 42.9 °F /  6.1 °C 26.5 °F /  -3.1 °C 30.13in /  1020.2hPa WNW 5.0mph /  8km/h 13.0mph /  20.9km/h 52% 0.00in /  0mm
13:05 43.2 °F /  6.2 °C 26.3 °F /  -3.2 °C 30.13in /  1020.2hPa NNW 6.0mph /  9.7km/h 17.0mph /  27.4km/h 51% 0.00in /  0mm
13:10 42.8 °F /  6 °C 26.4 °F /  -3.1 °C 30.13in /  1020.2hPa NW 4.0mph /  6.4km/h 17.0mph /  27.4km/h 52% 0.00in /  0mm
13:15 42.0 °F /  5.6 °C 24.7 °F /  -4.1 °C 30.13in /  1020.2hPa WNW 4.0mph /  6.4km/h 15.0mph /  24.1km/h 50% 0.00in /  0mm
13:25 40.3 °F /  4.6 °C 24.1 °F /  -4.4 °C 30.13in /  1020.2hPa NW 7.0mph /  11.3km/h 10.0mph /  16.1km/h 52% 0.00in /  0mm
13:30 40.2 °F /  4.6 °C 24.9 °F /  -3.9 °C 30.13in /  1020.2hPa WNW 4.0mph /  6.4km/h 12.0mph /  19.3km/h 54% 0.00in /  0mm
13:35 40.7 °F /  4.8 °C 24.4 °F /  -4.2 °C 30.13in /  1020.2hPa NW 7.0mph /  11.3km/h 12.0mph /  19.3km/h 52% 0.00in /  0mm
13:40 41.6 °F /  5.3 °C 24.8 °F /  -4 °C 30.13in /  1020.2hPa NW 7.0mph /  11.3km/h 11.0mph /  17.7km/h 51% 0.00in /  0mm
13:45 41.8 °F /  5.4 °C 25.0 °F /  -3.9 °C 30.13in /  1020.2hPa WNW 6.0mph /  9.7km/h 11.0mph /  17.7km/h 51% 0.00in /  0mm
13:50 42.4 °F /  5.8 °C 25.6 °F /  -3.6 °C 30.13in /  1020.2hPa NW 4.0mph /  6.4km/h 11.0mph /  17.7km/h 51% 0.00in /  0mm
13:55 43.3 °F /  6.3 °C 25.4 °F /  -3.7 °C 30.13in /  1020.2hPa WNW 6.0mph /  9.7km/h 14.0mph /  22.5km/h 49% 0.00in /  0mm
14:00 43.4 °F /  6.3 °C 25.5 °F /  -3.6 °C 30.13in /  1020.2hPa NW 4.0mph /  6.4km/h 14.0mph /  22.5km/h 49% 0.00in /  0mm
14:05 43.9 °F /  6.6 °C 26.0 °F /  -3.3 °C 30.13in /  1020.2hPa NNW 2.0mph /  3.2km/h 13.0mph /  20.9km/h 49% 0.00in /  0mm
14:10 44.5 °F /  6.9 °C 24.5 °F /  -4.2 °C 30.13in /  1020.2hPa NNW 6.0mph /  9.7km/h 14.0mph /  22.5km/h 45% 0.00in /  0mm
14:15 44.3 °F /  6.8 °C 25.3 °F /  -3.7 °C 30.13in /  1020.2hPa NNW 3.0mph /  4.8km/h 14.0mph /  22.5km/h 47% 0.00in /  0mm
14:20 44.1 °F /  6.7 °C 24.1 °F /  -4.4 °C 30.13in /  1020.2hPa NW 6.0mph /  9.7km/h 13.0mph /  20.9km/h 45% 0.00in /  0mm
14:30 44.0 °F /  6.7 °C 25.1 °F /  -3.8 °C 30.14in /  1020.5hPa NNW 4.0mph /  6.4km/h 15.0mph /  24.1km/h 47% 0.00in /  0mm
14:35 43.8 °F /  6.6 °C 25.4 °F /  -3.7 °C 30.13in /  1020.2hPa NNW 2.0mph /  3.2km/h 15.0mph /  24.1km/h 48% 0.00in /  0mm
14:40 43.9 °F /  6.6 °C 25.0 °F /  -3.9 °C 30.13in /  1020.2hPa NW 7.0mph /  11.3km/h 10.0mph /  16.1km/h 47% 0.00in /  0mm
14:45 43.7 °F /  6.5 °C 25.8 °F /  -3.4 °C 30.14in /  1020.5hPa NW 5.0mph /  8km/h 13.0mph /  20.9km/h 49% 0.00in /  0mm
14:50 43.8 °F /  6.6 °C 26.4 °F /  -3.1 °C 30.14in /  1020.5hPa North 4.0mph /  6.4km/h 13.0mph /  20.9km/h 50% 0.00in /  0mm
14:55 44.1 °F /  6.7 °C 25.7 °F /  -3.5 °C 30.14in /  1020.5hPa NW 5.0mph /  8km/h 12.0mph /  19.3km/h 48% 0.00in /  0mm
15:00 44.2 °F /  6.8 °C 25.8 °F /  -3.4 °C 30.14in /  1020.5hPa NNW 5.0mph /  8km/h 13.0mph /  20.9km/h 48% 0.00in /  0mm
15:05 44.2 °F /  6.8 °C 25.8 °F /  -3.4 °C 30.14in /  1020.5hPa NNW 6.0mph /  9.7km/h 13.0mph /  20.9km/h 48% 0.00in /  0mm
15:10 44.2 °F /  6.8 °C 26.3 °F /  -3.2 °C 30.14in /  1020.5hPa Calm   12.0mph /  19.3km/h 49% 0.00in /  0mm
15:15 43.8 °F /  6.6 °C 25.4 °F /  -3.7 °C 30.14in /  1020.5hPa WNW 5.0mph /  8km/h 11.0mph /  17.7km/h 48% 0.00in /  0mm
15:20 44.2 °F /  6.8 °C 25.8 °F /  -3.4 °C 30.14in /  1020.5hPa NW 5.0mph /  8km/h 12.0mph /  19.3km/h 48% 0.00in /  0mm
15:25 44.6 °F /  7 °C 25.1 °F /  -3.8 °C 30.14in /  1020.5hPa NW 4.0mph /  6.4km/h 12.0mph /  19.3km/h 46% 0.00in /  0mm
15:30 44.9 °F /  7.2 °C 23.8 °F /  -4.6 °C 30.14in /  1020.5hPa North 4.0mph /  6.4km/h 13.0mph /  20.9km/h 43% 0.00in /  0mm
15:35 45.0 °F /  7.2 °C 23.8 °F /  -4.6 °C 30.15in /  1020.9hPa NW 7.0mph /  11.3km/h 13.0mph /  20.9km/h 43% 0.00in /  0mm
15:40 44.8 °F /  7.1 °C 23.7 °F /  -4.6 °C 30.15in /  1020.9hPa NNW 5.0mph /  8km/h 12.0mph /  19.3km/h 43% 0.00in /  0mm
15:45 44.7 °F /  7.1 °C 23.0 °F /  -5 °C 30.15in /  1020.9hPa NNW 3.0mph /  4.8km/h 11.0mph /  17.7km/h 42% 0.00in /  0mm
15:50 44.4 °F /  6.9 °C 22.7 °F /  -5.2 °C 30.15in /  1020.9hPa NW 6.0mph /  9.7km/h 14.0mph /  22.5km/h 42% 0.00in /  0mm
15:55 44.3 °F /  6.8 °C 22.6 °F /  -5.2 °C 30.15in /  1020.9hPa NW 9.0mph /  14.5km/h 15.0mph /  24.1km/h 42% 0.00in /  0mm
16:00 43.9 °F /  6.6 °C 22.8 °F /  -5.1 °C 30.15in /  1020.9hPa NW 3.0mph /  4.8km/h 15.0mph /  24.1km/h 43% 0.00in /  0mm
16:05 44.0 °F /  6.7 °C 21.8 °F /  -5.7 °C 30.15in /  1020.9hPa NW 5.0mph /  8km/h 10.0mph /  16.1km/h 41% 0.00in /  0mm
16:10 44.0 °F /  6.7 °C 22.4 °F /  -5.3 °C 30.15in /  1020.9hPa NNW 3.0mph /  4.8km/h 10.0mph /  16.1km/h 42% 0.00in /  0mm
16:15 44.2 °F /  6.8 °C 22.0 °F /  -5.6 °C 30.15in /  1020.9hPa NW 8.0mph /  12.9km/h 14.0mph /  22.5km/h 41% 0.00in /  0mm
16:20 43.6 °F /  6.4 °C 22.0 °F /  -5.6 °C 30.15in /  1020.9hPa WNW 6.0mph /  9.7km/h 16.0mph /  25.7km/h 42% 0.00in /  0mm
16:25 42.3 °F /  5.7 °C 20.8 °F /  -6.2 °C 30.16in /  1021.2hPa WNW 7.0mph /  11.3km/h 16.0mph /  25.7km/h 42% 0.00in /  0mm
16:30 41.0 °F /  5 °C 20.8 °F /  -6.2 °C 30.16in /  1021.2hPa NW 6.0mph /  9.7km/h 15.0mph /  24.1km/h 44% 0.00in /  0mm
16:35 40.6 °F /  4.8 °C 20.4 °F /  -6.4 °C 30.16in /  1021.2hPa NW 4.0mph /  6.4km/h 15.0mph /  24.1km/h 44% 0.00in /  0mm
16:45 41.6 °F /  5.3 °C 21.3 °F /  -5.9 °C 30.16in /  1021.2hPa NNW 5.0mph /  8km/h 14.0mph /  22.5km/h 44% 0.00in /  0mm
16:50 41.4 °F /  5.2 °C 21.1 °F /  -6.1 °C 30.15in /  1020.9hPa NNW 3.0mph /  4.8km/h 14.0mph /  22.5km/h 44% 0.00in /  0mm
16:55 40.7 °F /  4.8 °C 20.5 °F /  -6.4 °C 30.16in /  1021.2hPa NW 3.0mph /  4.8km/h 10.0mph /  16.1km/h 44% 0.00in /  0mm
17:00 40.7 °F /  4.8 °C 21.0 °F /  -6.1 °C 30.15in /  1020.9hPa WNW 6.0mph /  9.7km/h 10.0mph /  16.1km/h 45% 0.00in /  0mm
17:05 40.8 °F /  4.9 °C 21.1 °F /  -6.1 °C 30.15in /  1020.9hPa WNW 4.0mph /  6.4km/h 10.0mph /  16.1km/h 45% 0.00in /  0mm
17:10 40.6 °F /  4.8 °C 21.4 °F /  -5.9 °C 30.15in /  1020.9hPa NW 4.0mph /  6.4km/h 8.0mph /  12.9km/h 46% 0.00in /  0mm
17:15 40.3 °F /  4.6 °C 21.2 °F /  -6 °C 30.15in /  1020.9hPa NW 5.0mph /  8km/h 9.0mph /  14.5km/h 46% 0.00in /  0mm
17:20 40.0 °F /  4.4 °C 21.4 °F /  -5.9 °C 30.15in /  1020.9hPa NNW 2.0mph /  3.2km/h 9.0mph /  14.5km/h 47% 0.00in /  0mm
17:25 39.5 °F /  4.2 °C 20.4 °F /  -6.4 °C 30.15in /  1020.9hPa NNW 3.0mph /  4.8km/h 10.0mph /  16.1km/h 46% 0.00in /  0mm
17:30 39.0 °F /  3.9 °C 20.5 °F /  -6.4 °C 30.15in /  1020.9hPa WNW 4.0mph /  6.4km/h 10.0mph /  16.1km/h 47% 0.00in /  0mm
17:35 38.4 °F /  3.6 °C 20.9 °F /  -6.2 °C 30.16in /  1021.2hPa WNW 5.0mph /  8km/h 10.0mph /  16.1km/h 49% 0.00in /  0mm
17:40 38.1 °F /  3.4 °C 21.1 °F /  -6.1 °C 30.16in /  1021.2hPa WNW 1.0mph /  1.6km/h 6.0mph /  9.7km/h 50% 0.00in /  0mm
17:45 37.6 °F /  3.1 °C 20.6 °F /  -6.3 °C 30.16in /  1021.2hPa NW 2.0mph /  3.2km/h 12.0mph /  19.3km/h 50% 0.00in /  0mm
17:50 37.4 °F /  3 °C 20.9 °F /  -6.2 °C 30.15in /  1020.9hPa NNW 2.0mph /  3.2km/h 12.0mph /  19.3km/h 51% 0.00in /  0mm
17:55 37.4 °F /  3 °C 20.5 °F /  -6.4 °C 30.15in /  1020.9hPa NW 3.0mph /  4.8km/h 10.0mph /  16.1km/h 50% 0.00in /  0mm
18:00 37.4 °F /  3 °C 20.9 °F /  -6.2 °C 30.15in /  1020.9hPa NW 3.0mph /  4.8km/h 10.0mph /  16.1km/h 51% 0.00in /  0mm
18:05 37.2 °F /  2.9 °C 21.2 °F /  -6 °C 30.15in /  1020.9hPa Calm   8.0mph /  12.9km/h 52% 0.00in /  0mm
18:10 36.9 °F /  2.7 °C 20.9 °F /  -6.2 °C 30.16in /  1021.2hPa Calm   9.0mph /  14.5km/h 52% 0.00in /  0mm
18:15 36.5 °F /  2.5 °C 21.0 °F /  -6.1 °C 30.16in /  1021.2hPa NW 3.0mph /  4.8km/h 9.0mph /  14.5km/h 53% 0.00in /  0mm
18:20 36.4 °F /  2.4 °C 20.9 °F /  -6.2 °C 30.16in /  1021.2hPa NW 1.0mph /  1.6km/h 9.0mph /  14.5km/h 53% 0.00in /  0mm
18:25 36.2 °F /  2.3 °C 20.7 °F /  -6.3 °C 30.17in /  1021.6hPa WNW 1.0mph /  1.6km/h 9.0mph /  14.5km/h 53% 0.00in /  0mm
18:35 35.8 °F /  2.1 °C 21.2 °F /  -6 °C 30.17in /  1021.6hPa Calm   5.0mph /  8km/h 55% 0.00in /  0mm
18:40 35.5 °F /  1.9 °C 21.4 °F /  -5.9 °C 30.17in /  1021.6hPa Calm   4.0mph /  6.4km/h 56% 0.00in /  0mm
18:45 35.1 °F /  1.7 °C 21.0 °F /  -6.1 °C 30.17in /  1021.6hPa NW 1.0mph /  1.6km/h 5.0mph /  8km/h 56% 0.00in /  0mm
18:50 34.8 °F /  1.6 °C 21.1 °F /  -6.1 °C 30.17in /  1021.6hPa NNW 1.0mph /  1.6km/h 5.0mph /  8km/h 57% 0.00in /  0mm
18:55 34.4 °F /  1.3 °C 21.2 °F /  -6 °C 30.17in /  1021.6hPa Calm   5.0mph /  8km/h 58% 0.00in /  0mm
19:00 34.4 °F /  1.3 °C 21.2 °F /  -6 °C 30.17in /  1021.6hPa Calm   3.0mph /  4.8km/h 58% 0.00in /  0mm
19:05 34.2 °F /  1.2 °C 21.8 °F /  -5.7 °C 30.17in /  1021.6hPa Calm   3.0mph /  4.8km/h 60% 0.00in /  0mm
19:10 33.7 °F /  0.9 °C 21.7 °F /  -5.7 °C 30.18in /  1021.9hPa WNW 1.0mph /  1.6km/h 4.0mph /  6.4km/h 61% 0.00in /  0mm
19:15 33.8 °F /  1 °C 21.4 °F /  -5.9 °C 30.17in /  1021.6hPa Calm   6.0mph /  9.7km/h 60% 0.00in /  0mm
19:20 34.2 °F /  1.2 °C 21.8 °F /  -5.7 °C 30.18in /  1021.9hPa Calm   6.0mph /  9.7km/h 60% 0.00in /  0mm
19:25 34.4 °F /  1.3 °C 22.0 °F /  -5.6 °C 30.18in /  1021.9hPa Calm   4.0mph /  6.4km/h 60% 0.00in /  0mm
19:30 34.4 °F /  1.3 °C 22.0 °F /  -5.6 °C 30.18in /  1021.9hPa Calm   4.0mph /  6.4km/h 60% 0.00in /  0mm
19:35 34.3 °F /  1.3 °C 21.9 °F /  -5.6 °C 30.18in /  1021.9hPa Calm   3.0mph /  4.8km/h 60% 0.00in /  0mm
19:40 34.2 °F /  1.2 °C 21.8 °F /  -5.7 °C 30.18in /  1021.9hPa Calm   3.0mph /  4.8km/h 60% 0.00in /  0mm
19:45 33.8 °F /  1 °C 21.8 °F /  -5.7 °C 30.18in /  1021.9hPa Calm   3.0mph /  4.8km/h 61% 0.00in /  0mm
19:50 33.5 °F /  0.8 °C 21.9 °F /  -5.6 °C 30.18in /  1021.9hPa Calm   3.0mph /  4.8km/h 62% 0.00in /  0mm
19:55 33.4 °F /  0.8 °C 22.2 °F /  -5.4 °C 30.18in /  1021.9hPa Calm   3.0mph /  4.8km/h 63% 0.00in /  0mm
20:00 33.3 °F /  0.7 °C 22.1 °F /  -5.5 °C 30.19in /  1022.2hPa Calm     63% 0.00in /  0mm
20:05 33.4 °F /  0.8 °C 22.2 °F /  -5.4 °C 30.19in /  1022.2hPa Calm     63% 0.00in /  0mm
20:10 33.4 °F /  0.8 °C 22.5 °F /  -5.3 °C 30.19in /  1022.2hPa Calm     64% 0.00in /  0mm
20:15 33.5 °F /  0.8 °C 23.0 °F /  -5 °C 30.19in /  1022.2hPa Calm     65% 0.00in /  0mm
20:20 33.3 °F /  0.7 °C 23.2 °F /  -4.9 °C 30.19in /  1022.2hPa Calm     66% 0.00in /  0mm
20:25 33.2 °F /  0.7 °C 22.7 °F /  -5.2 °C 30.19in /  1022.2hPa Calm     65% 0.00in /  0mm
20:30 33.0 °F /  0.6 °C 22.5 °F /  -5.3 °C 30.20in /  1022.6hPa Calm     65% 0.00in /  0mm
20:35 32.8 °F /  0.4 °C 22.7 °F /  -5.2 °C 30.20in /  1022.6hPa Calm     66% 0.00in /  0mm
20:40 32.4 °F /  0.2 °C 22.7 °F /  -5.2 °C 30.20in /  1022.6hPa Calm     67% 0.00in /  0mm
20:45 32.1 °F /  0.1 °C 22.7 °F /  -5.2 °C 30.20in /  1022.6hPa Calm     68% 0.00in /  0mm
20:50 32.0 °F /  0 °C 22.6 °F /  -5.2 °C 30.20in /  1022.6hPa Calm     68% 0.00in /  0mm
20:55 31.9 °F /  -0.1 °C 22.9 °F /  -5.1 °C 30.21in /  1022.9hPa Calm     69% 0.00in /  0mm
21:05 31.2 °F /  -0.4 °C 22.2 °F /  -5.4 °C 30.21in /  1022.9hPa Calm     69% 0.00in /  0mm
21:10 31.0 °F /  -0.6 °C 22.4 °F /  -5.3 °C 30.21in /  1022.9hPa Calm     70% 0.00in /  0mm
21:15 31.1 °F /  -0.5 °C 22.5 °F /  -5.3 °C 30.21in /  1022.9hPa Calm   1.0mph /  1.6km/h 70% 0.00in /  0mm
21:20 31.1 °F /  -0.5 °C 22.1 °F /  -5.5 °C 30.22in /  1023.2hPa Calm   1.0mph /  1.6km/h 69% 0.00in /  0mm
21:30 31.2 °F /  -0.4 °C 22.6 °F /  -5.2 °C 30.22in /  1023.2hPa Calm     70% 0.00in /  0mm
21:35 31.1 °F /  -0.5 °C 22.8 °F /  -5.1 °C 30.22in /  1023.2hPa Calm     71% 0.00in /  0mm
21:40 30.7 °F /  -0.7 °C 22.4 °F /  -5.3 °C 30.22in /  1023.2hPa Calm     71% 0.00in /  0mm
21:45 30.5 °F /  -0.8 °C 22.2 °F /  -5.4 °C 30.22in /  1023.2hPa Calm     71% 0.00in /  0mm
21:50 30.4 °F /  -0.9 °C 22.5 °F /  -5.3 °C 30.22in /  1023.2hPa Calm     72% 0.00in /  0mm
21:55 30.3 °F /  -0.9 °C 22.4 °F /  -5.3 °C 30.23in /  1023.6hPa Calm     72% 0.00in /  0mm
22:00 30.2 °F /  -1 °C 22.3 °F /  -5.4 °C 30.22in /  1023.2hPa Calm     72% 0.00in /  0mm
22:05 30.1 °F /  -1.1 °C 22.8 °F /  -5.1 °C 30.22in /  1023.2hPa Calm     74% 0.00in /  0mm
22:10 30.0 °F /  -1.1 °C 23.0 °F /  -5 °C 30.22in /  1023.2hPa Calm     75% 0.00in /  0mm
22:15 29.6 °F /  -1.3 °C 22.7 °F /  -5.2 °C 30.23in /  1023.6hPa Calm     75% 0.00in /  0mm
22:20 29.1 °F /  -1.6 °C 22.5 °F /  -5.3 °C 30.23in /  1023.6hPa Calm     76% 0.00in /  0mm
22:25 28.8 °F /  -1.8 °C 22.5 °F /  -5.3 °C 30.23in /  1023.6hPa Calm     77% 0.00in /  0mm
22:30 28.5 °F /  -1.9 °C 22.2 °F /  -5.4 °C 30.23in /  1023.6hPa Calm     77% 0.00in /  0mm
22:35 28.1 °F /  -2.2 °C 22.1 °F /  -5.5 °C 30.23in /  1023.6hPa Calm     78% 0.00in /  0mm
22:40 27.9 °F /  -2.3 °C 21.9 °F /  -5.6 °C 30.23in /  1023.6hPa Calm     78% 0.00in /  0mm
22:45 27.6 °F /  -2.4 °C 21.9 °F /  -5.6 °C 30.23in /  1023.6hPa Calm     79% 0.00in /  0mm
22:50 27.2 °F /  -2.7 °C 21.6 °F /  -5.8 °C 30.24in /  1023.9hPa Calm     79% 0.00in /  0mm
22:55 26.9 °F /  -2.8 °C 21.6 °F /  -5.8 °C 30.24in /  1023.9hPa Calm     80% 0.00in /  0mm
23:00 27.0 °F /  -2.8 °C 22.0 °F /  -5.6 °C 30.24in /  1023.9hPa Calm     81% 0.00in /  0mm
23:05 27.2 °F /  -2.7 °C 22.1 °F /  -5.5 °C 30.24in /  1023.9hPa Calm     81% 0.00in /  0mm
23:10 27.5 °F /  -2.5 °C 22.7 °F /  -5.2 °C 30.24in /  1023.9hPa Calm     82% 0.00in /  0mm
23:15 27.8 °F /  -2.3 °C 22.7 °F /  -5.2 °C 30.24in /  1023.9hPa Calm     81% 0.00in /  0mm
23:20 28.0 °F /  -2.2 °C 22.9 °F /  -5.1 °C 30.23in /  1023.6hPa Calm     81% 0.00in /  0mm
23:25 28.2 °F /  -2.1 °C 22.8 °F /  -5.1 °C 30.23in /  1023.6hPa Calm     80% 0.00in /  0mm
23:30 28.2 °F /  -2.1 °C 22.8 °F /  -5.1 °C 30.23in /  1023.6hPa Calm     80% 0.00in /  0mm
23:35 28.1 °F /  -2.2 °C 22.4 °F /  -5.3 °C 30.24in /  1023.9hPa Calm     79% 0.00in /  0mm
23:40 27.9 °F /  -2.3 °C 22.2 °F /  -5.4 °C 30.24in /  1023.9hPa Calm     79% 0.00in /  0mm
23:45 27.6 °F /  -2.4 °C 21.9 °F /  -5.6 °C 30.24in /  1023.9hPa Calm     79% 0.00in /  0mm
23:50 27.4 °F /  -2.6 °C 22.0 °F /  -5.6 °C 30.24in /  1023.9hPa Calm     80% 0.00in /  0mm
23:55 27.0 °F /  -2.8 °C 21.7 °F /  -5.7 °C 30.24in /  1023.9hPa Calm     80% 0.00in /  0mm
Westford Weather
Compliments of Weather Underground

 
 
Current Radar Loop:

Copyright © WestfordWeather.net 2007-2014. All rights reserved.